This is the latest recevied weather packets stored in our database for station/object K4YY. If no packets are shown the sender has not sent any weather packets the latest 10 day(s).
| Time | Temp. | Humidity | Pressure | Rain* | Wind** | Luminosity | Snow |
|---|---|---|---|---|---|---|---|
| 1777665918 | 28.33° C | 58% | 1008.5 hPa | 0 mm | - | 775 W/m² | - |
| 1777665318 | 28.33° C | 55% | 1008.8 hPa | 0 mm | - | 187 W/m² | - |
| 1777663518 | 27.78° C | 57% | 1009.5 hPa | 0 mm | - | 948 W/m² | - |
| 1777662318 | 27.22° C | 57% | 1009.7 hPa | 0 mm | - | 535 W/m² | - |
| 1777659918 | 26.67° C | 60% | 1010.2 hPa | 0 mm | - | 394 W/m² | - |
| 1777659318 | 26.67° C | 60% | 1010.2 hPa | 0 mm | - | 326 W/m² | - |
| 1777655718 | 26.11° C | 63% | 1010.8 hPa | 0 mm | - | 535 W/m² | - |
| 1777652719 | 25.56° C | 65% | 1011.2 hPa | 0 mm | - | 339 W/m² | - |
| 1777647919 | 25° C | 70% | 1011.5 hPa | 0 mm | - | 307 W/m² | - |
| 1777646719 | 24.44° C | 75% | 1011.5 hPa | 0 mm | - | 483 W/m² | - |
| 1777641939 | 22.22° C | 76% | 1011 hPa | 0 mm | - | 169 W/m² | - |
| 1777636220 | 21.11° C | 76% | 1010.5 hPa | 0 mm | - | 63 W/m² | - |
| 1777634419 | 20.56° C | 78% | 1010.2 hPa | 0 mm | - | 29 W/m² | - |
| 1777633819 | 21.11° C | 80% | 1010 hPa | 0 mm | - | 12 W/m² | - |
| 1777633219 | 21.11° C | 77% | 1009.8 hPa | 0 mm | - | 4 W/m² | - |
| 1777617020 | 21.67° C | 87% | 1009.5 hPa | 0 mm | - | 0 W/m² | - |
| 1777615220 | 21.67° C | 87% | 1009.6 hPa | 0 mm | - | 0 W/m² | - |
| 1777608638 | 22.22° C | 86% | 1009.9 hPa | 0 mm | - | 0 W/m² | - |
| 1777598879 | 22.78° C | 84% | 1008.6 hPa | 0.25 mm | - | 0 W/m² | - |
| 1777563618 | 26.11° C | 68% | 1009.9 hPa | 0 mm | - | 849 W/m² | - |
| 1777556418 | 23.33° C | 82% | 1009.8 hPa | 0 mm | - | 208 W/m² | - |
| 1777554618 | 22.78° C | 84% | 1009.8 hPa | 0 mm | - | 156 W/m² | - |
| 1777554018 | 22.78° C | 84% | 1009.9 hPa | 0 mm | - | 151 W/m² | - |
| 1777551618 | 22.78° C | 84% | 1009.6 hPa | 0 mm | - | 80 W/m² | - |
| 1777538418 | 22.22° C | 78% | 1008.5 hPa | 0 mm | - | 0 W/m² | - |
* Rain latest hour (hover to see other rain measurements)
** Current wind speed in m/s (hover to see current wind gust speed)